Time;durP1;ratioP1;P1;durP2;ratioP2;P2;SDS_P1;SDS_P2;PMS_P1;PMS_P2;Temp;Humidity;BMP_temperature;BMP_pressure;BME280_temperature;BME280_humidity;BME280_pressure;Samples;Min_cycle;Max_cycle;Signal;HPM_P1;HPM_P2
2023/03/01 00:00:26;;;;;;;15.13;9.27;;;;;;;-0.43;68.75;103065.03;4927070;29;20083;-91
2023/03/01 00:02:51;;;;;;;17.33;8.95;;;;;;;-0.47;68.83;103074.03;4944006;28;20097;-91
2023/03/01 00:05:16;;;;;;;18.05;9.30;;;;;;;-0.49;68.86;103060.19;4928859;29;20093;-91
2023/03/01 00:07:42;;;;;;;18.23;9.95;;;;;;;-0.48;69.40;103064.53;4904791;28;1147817;-91
2023/03/01 00:10:08;;;;;;;17.13;9.35;;;;;;;-0.49;69.36;103064.38;4952319;28;20084;-91
2023/03/01 00:12:33;;;;;;;14.90;9.65;;;;;;;-0.48;69.32;103071.31;4951634;28;20041;-91
2023/03/01 00:14:58;;;;;;;16.75;9.20;;;;;;;-0.47;69.13;103078.28;4953495;28;20115;-91
2023/03/01 00:17:24;;;;;;;15.45;8.95;;;;;;;-0.47;68.11;103070.59;4952958;28;20039;-91
2023/03/01 00:19:49;;;;;;;16.55;8.88;;;;;;;-0.48;68.94;103073.88;4934621;28;20035;-91
2023/03/01 00:22:14;;;;;;;15.88;9.20;;;;;;;-0.53;68.68;103068.28;4936379;28;20118;-90
2023/03/01 00:24:39;;;;;;;15.82;9.57;;;;;;;-0.57;68.56;103067.03;4954002;28;20031;-91
2023/03/01 00:27:05;;;;;;;16.00;9.32;;;;;;;-0.60;68.73;103068.41;4935059;28;20058;-91
2023/03/01 00:29:30;;;;;;;18.38;9.43;;;;;;;-0.61;68.59;103074.25;4953460;28;20045;-91
2023/03/01 00:31:55;;;;;;;16.02;9.68;;;;;;;-0.65;68.69;103065.38;4952258;28;20173;-90
2023/03/01 00:34:20;;;;;;;17.58;9.93;;;;;;;-0.66;68.57;103072.88;4952026;28;20039;-91
2023/03/01 00:36:46;;;;;;;18.35;10.30;;;;;;;-0.68;68.69;103064.13;4954599;28;20035;-90
2023/03/01 00:39:13;;;;;;;18.20;9.73;;;;;;;-0.72;68.97;103068.03;4935095;28;20035;-90
2023/03/01 00:41:40;;;;;;;17.33;9.27;;;;;;;-0.78;68.28;103068.28;4952408;28;20030;-91
2023/03/01 00:44:05;;;;;;;20.95;9.82;;;;;;;-0.83;69.78;103073.66;4934635;28;20477;-91
2023/03/01 00:46:30;;;;;;;17.38;9.32;;;;;;;-0.90;70.27;103075.56;4950518;28;20034;-88
2023/03/01 00:48:56;;;;;;;17.80;9.55;;;;;;;-0.95;70.12;103074.16;4951385;28;20050;-88
2023/03/01 00:51:26;;;;;;;15.15;9.00;;;;;;;-0.99;69.67;103061.78;4952688;28;20031;-88
2023/03/01 00:53:58;;;;;;;16.80;9.32;;;;;;;-1.03;69.61;103059.63;4953968;28;20527;-88
2023/03/01 00:56:23;;;;;;;16.42;8.98;;;;;;;-1.08;70.25;103058.25;4954707;28;20055;-88
2023/03/01 00:58:49;;;;;;;16.33;9.35;;;;;;;-1.13;69.72;103056.84;4955427;28;20027;-88
2023/03/01 01:01:18;;;;;;;16.75;9.40;;;;;;;-1.17;69.91;103045.41;4950788;28;20035;-88
2023/03/01 01:03:44;;;;;;;;;;;;;;;-1.12;69.47;103043.31;4938526;28;20062;-88
2023/03/01 01:06:15;;;;;;;16.45;8.68;;;;;;;-1.18;70.14;103037.56;4953074;28;19914;-88
2023/03/01 01:08:40;;;;;;;14.80;9.25;;;;;;;-1.21;70.40;103039.81;4950259;28;20047;-88
2023/03/01 01:11:09;;;;;;;16.63;9.02;;;;;;;-1.26;70.50;103040.22;4950592;28;20034;-88
2023/03/01 01:13:34;;;;;;;16.60;9.40;;;;;;;-1.28;70.21;103039.13;4983379;28;20027;-88
2023/03/01 01:16:02;;;;;;;17.05;9.00;;;;;;;-1.29;69.96;103039.91;4951251;28;20505;-88
2023/03/01 01:18:27;;;;;;;16.23;9.38;;;;;;;-1.31;70.23;103035.34;4947686;28;20031;-90
2023/03/01 01:20:53;;;;;;;16.73;9.85;;;;;;;-1.31;70.37;103043.03;4961660;28;20074;-90
2023/03/01 01:23:18;;;;;;;17.20;9.52;;;;;;;-1.32;70.53;103031.91;4948933;28;20058;-90
2023/03/01 01:25:43;;;;;;;18.83;9.55;;;;;;;-1.36;70.43;103026.25;4946759;28;20926;-90
2023/03/01 01:28:08;;;;;;;16.77;9.40;;;;;;;-1.38;70.75;103018.44;4947746;28;20062;-90
2023/03/01 01:30:34;;;;;;;17.17;9.98;;;;;;;-1.41;70.72;103019.00;4949474;28;20041;-90
2023/03/01 01:32:59;;;;;;;16.48;9.30;;;;;;;-1.41;70.60;103011.34;4946641;28;20030;-90
2023/03/01 01:35:24;;;;;;;18.55;9.73;;;;;;;-1.44;70.86;103003.34;4948409;28;20560;-90
2023/03/01 01:37:50;;;;;;;16.80;8.82;;;;;;;-1.50;70.64;103002.69;4963170;28;20484;-90
2023/03/01 01:40:15;;;;;;;16.70;9.50;;;;;;;-1.57;71.00;103003.66;4961947;28;20039;-90
2023/03/01 01:42:40;;;;;;;17.00;9.55;;;;;;;-1.60;70.75;102998.22;4949467;28;20027;-90
2023/03/01 01:45:28;;;;;;;16.95;9.00;;;;;;;-1.60;71.55;102994.78;4947294;28;20457;-90
2023/03/01 01:47:57;;;;;;;17.42;9.30;;;;;;;-1.64;71.00;102992.63;4960557;28;20023;-90
2023/03/01 01:50:23;;;;;;;16.27;9.05;;;;;;;-1.69;71.43;102993.81;4962808;28;20527;-91
2023/03/01 01:52:51;;;;;;;15.90;8.65;;;;;;;-1.73;71.27;102981.44;4947261;28;20816;-89
2023/03/01 01:55:27;;;;;;;17.45;9.25;;;;;;;-1.75;72.12;102988.94;4947643;28;20480;-91
2023/03/01 01:57:56;;;;;;;14.35;8.48;;;;;;;-1.78;71.32;102991.16;4949161;28;20154;-90
2023/03/01 02:00:28;;;;;;;18.83;9.15;;;;;;;-1.76;71.49;102989.66;4947722;28;20042;-90
2023/03/01 02:02:58;;;;;;;16.88;9.10;;;;;;;-1.76;71.67;102992.22;4948128;28;20038;-89
2023/03/01 02:05:50;;;;;;;15.02;8.45;;;;;;;-1.77;71.84;102987.84;4962462;28;20038;-90
2023/03/01 02:08:18;;;;;;;15.80;8.50;;;;;;;-1.80;71.53;102974.75;4947189;28;20066;-90
2023/03/01 02:10:44;;;;;;;17.88;9.02;;;;;;;-1.83;71.77;102970.19;4931128;29;20031;-90
2023/03/01 02:13:10;;;;;;;16.63;8.77;;;;;;;-1.82;71.31;102968.56;4947016;29;20612;-90
2023/03/01 02:15:39;;;;;;;16.45;9.55;;;;;;;-1.83;71.98;102969.31;4945852;28;20034;-91
2023/03/01 02:18:06;;;;;;;14.88;9.05;;;;;;;-1.84;71.86;102972.59;4944359;29;20034;-87
2023/03/01 02:20:45;;;;;;;17.33;9.13;;;;;;;-1.84;71.58;102970.03;4927290;28;20050;-88
2023/03/01 02:23:10;;;;;;;14.60;8.93;;;;;;;-1.86;71.71;102963.88;4946612;28;20064;-88
2023/03/01 02:25:40;;;;;;;15.43;8.32;;;;;;;-1.88;71.91;102963.69;4930361;29;20106;-87
2023/03/01 02:28:10;;;;;;;15.55;8.70;;;;;;;-1.88;71.88;102960.22;4946228;29;20023;-87
2023/03/01 02:30:36;;;;;;;15.93;9.05;;;;;;;-1.90;72.04;102964.28;4944830;29;20106;-87
2023/03/01 02:33:03;;;;;;;16.42;8.70;;;;;;;-1.92;72.35;102967.56;4928468;28;20085;-87
2023/03/01 02:35:32;;;;;;;16.17;8.68;;;;;;;-1.98;72.32;102966.91;4944345;28;20517;-87
2023/03/01 02:38:00;;;;;;;14.85;8.82;;;;;;;-2.02;72.71;102959.63;4944639;28;20035;-88
2023/03/01 02:40:29;;;;;;;17.02;9.02;;;;;;;-2.01;72.79;102961.47;4945831;28;20042;-88
2023/03/01 02:42:58;;;;;;;15.77;9.02;;;;;;;-2.03;72.55;102964.59;4945782;29;20037;-87
2023/03/01 02:45:24;;;;;;;15.88;8.85;;;;;;;-2.05;72.70;102961.88;4943352;28;20129;-87
2023/03/01 02:47:53;;;;;;;18.65;9.18;;;;;;;-2.04;72.56;102968.81;4946681;29;20366;-90
2023/03/01 02:50:30;;;;;;;14.90;8.45;;;;;;;-2.04;73.36;102971.34;4945675;28;20019;-90
2023/03/01 02:53:08;;;;;;;15.20;8.63;;;;;;;-2.01;73.24;102966.56;4945060;28;20039;-90
2023/03/01 02:55:33;;;;;;;14.70;8.45;;;;;;;-2.04;72.80;102961.13;4946140;29;20055;-90
2023/03/01 02:58:02;;;;;;;17.45;8.57;;;;;;;-2.04;72.94;102966.25;4947703;28;20147;-90
2023/03/01 03:00:34;;;;;;;14.57;8.90;;;;;;;-2.07;72.82;102970.09;4930484;28;20097;-90
2023/03/01 03:02:59;;;;;;;16.15;8.18;;;;;;;-2.10;72.53;102960.44;4947605;29;20034;-90
2023/03/01 03:05:30;;;;;;;16.38;8.85;;;;;;;-2.13;72.90;102960.13;4945866;29;20039;-90
2023/03/01 03:07:56;;;;;;;14.10;7.97;;;;;;;-2.15;72.88;102959.06;4945947;28;20028;-90
2023/03/01 03:10:26;;;;;;;12.85;7.65;;;;;;;-2.16;72.96;102962.34;4956992;28;20035;-91
2023/03/01 03:13:01;;;;;;;15.18;8.40;;;;;;;-2.19;73.42;102960.34;4954641;28;20023;-89
2023/03/01 03:15:28;;;;;;;15.45;8.10;;;;;;;-2.19;72.93;102964.56;4952681;28;20035;-90
2023/03/01 03:17:55;;;;;;;12.95;7.65;;;;;;;-2.21;73.38;102973.72;4939383;28;20039;-90
2023/03/01 03:20:23;;;;;;;14.95;8.60;;;;;;;-2.22;73.50;102970.22;4956080;28;20045;-90
2023/03/01 03:22:51;;;;;;;14.07;8.25;;;;;;;-2.27;73.76;102964.63;4955430;28;20070;-90
2023/03/01 03:25:17;;;;;;;15.20;8.70;;;;;;;-2.27;75.35;102964.63;4968684;28;20456;-91
2023/03/01 03:27:44;;;;;;;16.67;8.18;;;;;;;-2.29;75.86;102962.63;4953794;28;20029;-90
2023/03/01 03:30:12;;;;;;;15.88;8.60;;;;;;;-2.27;75.97;102964.63;4954588;28;20114;-90
2023/03/01 03:32:51;;;;;;;16.80;8.48;;;;;;;-2.23;76.30;102959.84;4952556;28;20039;-90
2023/03/01 03:35:17;;;;;;;;;;;;;;;-2.16;74.04;102954.69;4953519;28;20095;-90
2023/03/01 03:40:31;;;;;;;14.38;7.60;;;;;;;-2.20;76.14;102955.06;4954088;28;20098;-90
2023/03/01 03:42:57;;;;;;;16.60;8.20;;;;;;;-2.19;76.16;102957.78;4936922;28;20046;-90
2023/03/01 03:45:22;;;;;;;14.48;7.65;;;;;;;-2.18;76.32;102958.72;4951684;28;20035;-91
2023/03/01 03:47:48;;;;;;;13.65;7.28;;;;;;;-2.18;76.23;102961.28;4952249;28;20025;-90
2023/03/01 03:50:15;;;;;;;14.52;7.60;;;;;;;-2.21;76.26;102964.41;4955330;28;20037;-90
2023/03/01 03:52:40;;;;;;;15.38;7.85;;;;;;;-2.23;76.48;102957.31;4954174;28;20386;-90
2023/03/01 03:55:09;;;;;;;13.98;7.65;;;;;;;-2.23;76.80;102962.41;4953448;28;20080;-90
2023/03/01 03:57:34;;;;;;;15.48;7.38;;;;;;;-2.25;76.82;102964.78;4954565;28;20039;-91
2023/03/01 04:00:00;;;;;;;15.57;7.57;;;;;;;-2.25;76.82;102954.59;4935479;28;20457;-90
2023/03/01 04:02:25;;;;;;;12.68;6.80;;;;;;;-2.24;76.79;102950.41;4954273;28;20027;-90
2023/03/01 04:04:50;;;;;;;11.90;6.80;;;;;;;-2.24;77.13;102946.19;4953840;28;20447;-90
2023/03/01 04:07:16;;;;;;;14.93;6.82;;;;;;;-2.24;77.26;102943.63;4936274;28;20065;-91
2023/03/01 04:09:43;;;;;;;14.80;7.03;;;;;;;-2.23;77.13;102944.53;4945082;28;20740;-90
2023/03/01 04:12:08;;;;;;;13.35;6.72;;;;;;;-2.22;76.64;102931.03;4964802;28;20094;-91
2023/03/01 04:14:34;;;;;;;13.00;6.85;;;;;;;-2.24;76.47;102928.31;4961000;28;20031;-90
2023/03/01 04:16:59;;;;;;;15.88;7.22;;;;;;;-2.24;76.96;102927.44;4963113;28;20027;-91
2023/03/01 04:19:24;;;;;;;14.52;7.18;;;;;;;-2.23;76.76;102931.75;4962405;28;20575;-91
2023/03/01 04:21:49;;;;;;;13.52;6.78;;;;;;;-2.25;76.61;102926.50;4964599;28;20039;-90
2023/03/01 04:24:15;;;;;;;13.75;6.90;;;;;;;-2.22;76.54;102933.59;4945905;28;20033;-90
2023/03/01 04:26:40;;;;;;;13.32;7.47;;;;;;;-2.22;76.72;102931.03;4963344;28;20030;-88
2023/03/01 04:29:05;;;;;;;15.30;7.60;;;;;;;-2.21;77.10;102927.75;4963272;28;20030;-88
2023/03/01 04:31:31;;;;;;;11.85;6.95;;;;;;;-2.21;76.23;102923.53;4962882;28;20038;-88
2023/03/01 04:33:56;;;;;;;12.63;7.15;;;;;;;-2.23;76.19;102926.66;4977724;28;20114;-88
2023/03/01 04:36:27;;;;;;;13.75;7.50;;;;;;;-2.27;76.23;102922.88;4959455;28;20046;-88
2023/03/01 04:38:53;;;;;;;12.23;6.65;;;;;;;-2.30;75.75;102922.56;4963757;28;20358;-88
2023/03/01 04:41:20;;;;;;;15.48;7.50;;;;;;;-2.34;75.69;102917.84;4963522;28;20480;-88
2023/03/01 04:43:46;;;;;;;12.55;7.32;;;;;;;-2.35;75.58;102914.38;4959474;28;20026;-88
2023/03/01 04:46:14;;;;;;;13.60;7.15;;;;;;;-2.37;75.54;102913.31;4959267;28;20042;-88
2023/03/01 04:48:41;;;;;;;15.63;7.18;;;;;;;-2.41;75.17;102913.69;4959889;28;20015;-88
2023/03/01 04:51:08;;;;;;;14.95;7.47;;;;;;;-2.47;75.38;102911.38;4962253;28;20031;-88
2023/03/01 04:53:36;;;;;;;14.65;7.60;;;;;;;-2.49;75.67;102911.94;4976930;28;20015;-88
2023/03/01 04:56:02;;;;;;;13.98;6.97;;;;;;;-2.53;75.46;102905.63;4963192;28;20023;-89
2023/03/01 04:58:28;;;;;;;14.57;7.40;;;;;;;-2.55;75.82;102896.91;4964467;28;20061;-88
2023/03/01 05:00:54;;;;;;;14.60;7.70;;;;;;;-2.55;75.04;102899.44;4976981;28;20507;-88
2023/03/01 05:03:19;;;;;;;14.30;7.60;;;;;;;-2.57;75.31;102895.81;4962891;28;20067;-88
2023/03/01 05:05:47;;;;;;;16.45;7.85;;;;;;;-2.59;76.07;102910.06;4962593;28;20488;-88
2023/03/01 05:08:17;;;;;;;14.57;7.20;;;;;;;-2.60;76.02;102907.34;4940133;28;20513;-88
2023/03/01 05:10:45;;;;;;;14.38;7.38;;;;;;;-2.63;76.33;102903.69;4943077;28;20031;-88
2023/03/01 05:13:13;;;;;;;15.13;7.90;;;;;;;-2.65;76.70;102897.53;4943682;29;20035;-88
2023/03/01 05:15:38;;;;;;;13.68;7.30;;;;;;;-2.62;76.00;102902.97;4943014;28;20716;-88
2023/03/01 05:18:07;;;;;;;16.00;7.78;;;;;;;-2.60;76.52;102904.78;4942699;28;20034;-88
2023/03/01 05:20:35;;;;;;;15.95;7.93;;;;;;;-2.64;76.64;102894.25;4925257;28;20512;-88
2023/03/01 05:23:04;;;;;;;13.45;7.75;;;;;;;-2.62;76.46;102896.97;4942949;29;20027;-88
2023/03/01 05:25:32;;;;;;;15.38;8.45;;;;;;;-2.64;76.67;102893.31;4943796;28;20106;-88
2023/03/01 05:28:04;;;;;;;14.88;7.70;;;;;;;-2.67;76.49;102883.69;4943203;29;20027;-88
2023/03/01 05:30:30;;;;;;;14.38;7.60;;;;;;;-2.67;77.10;102882.78;4942601;29;20031;-88
2023/03/01 05:32:56;;;;;;;14.45;8.00;;;;;;;-2.67;76.95;102878.56;4942071;28;20126;-88
2023/03/01 05:35:21;;;;;;;14.93;8.07;;;;;;;-2.67;76.86;102873.47;4943609;29;20060;-88
2023/03/01 05:37:48;;;;;;;15.80;8.20;;;;;;;-2.67;76.97;102872.56;4942260;28;20035;-88
2023/03/01 05:40:17;;;;;;;15.25;7.82;;;;;;;-2.66;77.20;102869.28;4942280;28;20055;-88
2023/03/01 05:42:47;;;;;;;14.88;7.93;;;;;;;-2.67;77.39;102859.81;4925556;29;20440;-87
2023/03/01 05:45:13;;;;;;;15.82;8.30;;;;;;;-2.64;76.72;102866.19;4942161;28;20034;-87
2023/03/01 05:47:43;;;;;;;14.77;8.25;;;;;;;-2.64;77.18;102858.53;4942718;29;20045;-88
2023/03/01 05:50:19;;;;;;;14.52;7.68;;;;;;;-2.63;76.54;102867.06;4943424;28;20023;-87
2023/03/01 05:53:15;;;;;;;15.10;7.72;;;;;;;-2.65;75.84;102858.31;4925656;29;20035;-87
2023/03/01 05:55:42;;;;;;;16.63;8.00;;;;;;;-2.67;75.97;102855.59;4942970;28;20078;-88
2023/03/01 05:58:11;;;;;;;14.35;7.95;;;;;;;-2.69;76.16;102854.53;4946392;28;20062;-88
2023/03/01 06:00:37;;;;;;;15.63;8.20;;;;;;;-2.70;76.13;102864.59;4929807;29;20035;-87
2023/03/01 06:03:03;;;;;;;15.70;7.88;;;;;;;-2.75;76.12;102858.06;4948701;28;20102;-87
2023/03/01 06:05:28;;;;;;;13.20;7.80;;;;;;;-2.82;76.06;102862.50;4952856;28;20073;-86
2023/03/01 06:07:54;;;;;;;14.35;7.80;;;;;;;-2.86;76.10;102859.44;4954434;28;20023;-86
2023/03/01 06:10:21;;;;;;;16.55;9.00;;;;;;;-2.86;76.08;102865.44;4953546;28;20038;-86
2023/03/01 06:12:47;;;;;;;15.57;7.85;;;;;;;-2.90;75.97;102864.94;4953247;28;20035;-87
2023/03/01 06:15:15;;;;;;;13.23;7.55;;;;;;;-2.93;76.36;102859.50;4937573;29;20042;-87
2023/03/01 06:17:43;;;;;;;15.07;8.20;;;;;;;-2.95;76.44;102859.34;4944981;28;20031;-86
2023/03/01 06:20:18;;;;;;;14.25;7.57;;;;;;;-2.95;76.84;102849.13;4944114;28;20031;-87
2023/03/01 06:22:44;;;;;;;16.83;8.38;;;;;;;-2.94;76.45;102857.69;4947128;29;20035;-88
2023/03/01 06:25:12;;;;;;;14.35;7.65;;;;;;;-2.96;77.05;102854.97;4946101;29;20043;-87
2023/03/01 06:27:38;;;;;;;17.40;8.05;;;;;;;-2.98;76.96;102859.00;4947351;28;20369;-87
2023/03/01 06:30:04;;;;;;;13.77;8.02;;;;;;;-3.03;76.89;102866.13;4945590;28;20500;-87
2023/03/01 06:32:30;;;;;;;17.08;8.00;;;;;;;-3.04;78.11;102868.50;4944601;28;20058;-86
2023/03/01 06:34:55;;;;;;;17.15;8.63;;;;;;;-3.04;78.17;102871.06;4944930;28;20397;-87
2023/03/01 06:37:20;;;;;;;16.38;8.85;;;;;;;-3.04;77.99;102871.97;4944977;29;20382;-87
2023/03/01 06:39:46;;;;;;;17.08;8.80;;;;;;;-3.02;77.52;102861.94;4945973;28;20444;-87
2023/03/01 06:42:11;;;;;;;18.00;9.23;;;;;;;-3.03;78.15;102870.31;4945023;28;20035;-87
2023/03/01 06:44:37;;;;;;;16.23;8.57;;;;;;;-3.02;77.70;102872.16;4929708;29;20027;-88
2023/03/01 06:47:03;;;;;;;18.65;8.75;;;;;;;-3.02;77.77;102873.03;4944995;29;20034;-86
2023/03/01 06:49:28;;;;;;;21.33;10.18;;;;;;;-3.02;78.46;102872.16;4946496;29;20027;-87
2023/03/01 06:51:53;;;;;;;26.63;11.82;;;;;;;-3.01;78.86;102867.22;4946162;28;20060;-87
2023/03/01 06:54:21;;;;;;;31.05;13.73;;;;;;;-2.99;78.52;102870.81;4945386;28;20054;-87
2023/03/01 06:56:47;;;;;;;34.35;14.70;;;;;;;-2.95;78.53;102873.72;4946177;29;20029;-87
2023/03/01 06:59:13;;;;;;;36.53;13.55;;;;;;;-2.91;78.27;102873.31;4947259;28;20027;-87
2023/03/01 07:01:39;;;;;;;47.15;17.67;;;;;;;-2.86;78.46;102862.88;4946117;28;20492;-87
2023/03/01 07:04:04;;;;;;;40.35;16.50;;;;;;;-2.83;78.64;102862.31;4944949;28;20393;-87
2023/03/01 07:06:29;;;;;;;41.88;16.17;;;;;;;-2.80;79.00;102852.47;4946681;28;20146;-87
2023/03/01 07:08:55;;;;;;;39.97;16.58;;;;;;;-2.81;79.68;102854.13;4945153;28;20055;-87
2023/03/01 07:11:20;;;;;;;43.97;16.90;;;;;;;-2.79;79.92;102861.94;4946788;29;20019;-87
2023/03/01 07:13:45;;;;;;;41.85;16.52;;;;;;;-2.75;80.16;102853.88;4944705;28;20031;-87
2023/03/01 07:16:11;;;;;;;36.35;13.77;;;;;;;-2.72;80.50;102856.75;4944344;29;20089;-87
2023/03/01 07:18:36;;;;;;;35.00;14.43;;;;;;;-2.65;80.58;102856.69;4946348;28;20023;-87
2023/03/01 07:21:06;;;;;;;30.90;13.63;;;;;;;-2.59;80.52;102864.13;4945435;28;20446;-87
2023/03/01 07:23:32;;;;;;;41.17;16.30;;;;;;;-2.54;80.54;102865.50;4929167;29;20038;-87
2023/03/01 07:25:57;;;;;;;37.42;15.32;;;;;;;-2.49;80.20;102876.22;4945438;28;20031;-87
2023/03/01 07:28:24;;;;;;;23.27;11.55;;;;;;;-2.45;80.56;102881.84;4946028;29;20059;-87
2023/03/01 07:30:49;;;;;;;17.98;9.70;;;;;;;-2.37;80.35;102879.22;4945520;29;20074;-87
2023/03/01 07:33:14;;;;;;;16.80;9.95;;;;;;;-2.32;79.97;102880.59;4927546;29;20051;-87
2023/03/01 07:35:40;;;;;;;18.33;9.43;;;;;;;-2.27;79.99;102879.47;4942884;29;20031;-87
2023/03/01 07:38:05;;;;;;;19.33;9.45;;;;;;;-2.21;80.25;102881.78;4944786;28;20668;-87
2023/03/01 07:40:30;;;;;;;17.55;9.68;;;;;;;-2.16;80.40;102885.72;4945160;28;20035;-87
2023/03/01 07:42:57;;;;;;;19.90;9.90;;;;;;;-2.11;79.99;102879.47;4943278;28;20031;-87
2023/03/01 07:45:23;;;;;;;18.38;9.68;;;;;;;-2.06;79.90;102873.19;4942674;28;20042;-87
2023/03/01 07:47:50;;;;;;;18.02;9.48;;;;;;;-2.00;79.76;102879.00;4944538;28;20024;-87
2023/03/01 07:50:15;;;;;;;17.40;9.80;;;;;;;-1.95;79.94;102882.94;4926764;29;21471;-87
2023/03/01 07:52:41;;;;;;;17.67;9.68;;;;;;;-1.90;80.06;102880.84;4944971;28;20087;-87
2023/03/01 07:55:06;;;;;;;18.17;9.25;;;;;;;-1.84;79.95;102880.59;4943434;28;20090;-86
2023/03/01 07:57:32;;;;;;;18.50;9.45;;;;;;;-1.78;79.97;102881.28;4943167;28;20046;-87
2023/03/01 07:59:57;;;;;;;18.20;10.13;;;;;;;-1.72;79.98;102876.81;4944154;29;20038;-87
2023/03/01 08:02:22;;;;;;;18.77;9.60;;;;;;;-1.65;79.68;102869.06;4942950;28;20039;-88
2023/03/01 08:04:48;;;;;;;16.70;9.93;;;;;;;-1.58;79.60;102871.50;4941530;28;20507;-87
2023/03/01 08:07:13;;;;;;;17.60;9.68;;;;;;;-1.52;79.35;102873.81;4942766;28;20035;-87
2023/03/01 08:09:38;;;;;;;18.88;9.68;;;;;;;-1.43;80.07;102878.97;4944260;28;20091;-87
2023/03/01 08:12:04;;;;;;;17.58;9.32;;;;;;;-1.35;80.09;102880.66;4944266;28;20042;-87
2023/03/01 08:14:31;;;;;;;20.52;9.90;;;;;;;-1.27;80.55;102874.72;4944679;29;20780;-87
2023/03/01 08:16:56;;;;;;;19.35;10.05;;;;;;;-1.15;80.27;102884.41;4941879;29;20031;-87
2023/03/01 08:19:23;;;;;;;18.75;9.70;;;;;;;-1.03;80.59;102870.31;4939698;28;20046;-88
2023/03/01 08:21:48;;;;;;;19.75;10.05;;;;;;;-0.86;80.75;102871.16;4941940;29;20102;-86
2023/03/01 08:24:14;;;;;;;17.30;9.88;;;;;;;-0.72;80.02;102859.00;4941471;29;20042;-87
2023/03/01 08:26:39;;;;;;;20.63;10.40;;;;;;;-0.55;79.30;102868.41;4941662;28;20570;-90
2023/03/01 08:29:05;;;;;;;18.65;10.35;;;;;;;-0.40;78.68;102866.47;4927716;29;20023;-92
2023/03/01 08:31:35;;;;;;;19.00;9.88;;;;;;;-0.24;77.60;102861.25;4926605;29;20563;-91
2023/03/01 08:34:01;;;;;;;18.27;10.23;;;;;;;-0.08;78.07;102860.22;4943677;28;20030;-91
2023/03/01 08:36:30;;;;;;;19.98;10.57;;;;;;;0.07;77.98;102863.38;4942400;28;20131;-90
2023/03/01 08:38:56;;;;;;;19.58;10.55;;;;;;;0.23;77.24;102856.44;4944755;29;20035;-91
2023/03/01 08:41:22;;;;;;;18.10;9.85;;;;;;;0.38;76.28;102857.03;4927418;29;20065;-90
2023/03/01 08:43:47;;;;;;;18.33;9.35;;;;;;;0.49;76.35;102851.31;4926269;29;20034;-91
2023/03/01 08:46:13;;;;;;;16.63;9.60;;;;;;;0.62;74.95;102848.25;4946574;29;20500;-91
2023/03/01 08:48:39;;;;;;;18.85;10.25;;;;;;;0.77;75.46;102846.25;4942907;28;20034;-90
2023/03/01 08:51:18;;;;;;;16.33;9.38;;;;;;;0.92;74.84;102835.63;4928066;29;20057;-89
2023/03/01 08:53:44;;;;;;;16.15;9.38;;;;;;;1.04;74.85;102834.22;4944999;28;20019;-90
2023/03/01 08:56:10;;;;;;;18.50;10.02;;;;;;;1.15;74.21;102837.81;4945591;29;20533;-90
2023/03/01 08:58:36;;;;;;;16.25;9.25;;;;;;;1.24;73.73;102841.22;4945314;28;20035;-91
2023/03/01 09:01:08;;;;;;;17.45;9.93;;;;;;;1.36;73.91;102838.91;4943803;28;20042;-90
2023/03/01 09:03:33;;;;;;;19.83;9.23;;;;;;;1.47;72.74;102848.50;4949583;28;20054;-91
2023/03/01 09:06:03;;;;;;;16.75;9.20;;;;;;;1.56;72.28;102838.19;4943103;28;20028;-90
2023/03/01 09:08:29;;;;;;;18.48;9.48;;;;;;;1.66;71.35;102835.69;4949155;28;20134;-91
2023/03/01 09:10:54;;;;;;;15.90;8.93;;;;;;;1.73;71.17;102829.47;4979241;28;20125;-90
2023/03/01 09:13:19;;;;;;;17.23;9.02;;;;;;;1.81;71.52;102833.63;4962079;28;20023;-90
2023/03/01 09:15:45;;;;;;;16.95;9.02;;;;;;;1.87;70.03;102825.59;4964557;28;20031;-91
2023/03/01 09:18:10;;;;;;;17.35;9.68;;;;;;;1.90;68.65;102831.91;4965664;28;20077;-91
2023/03/01 09:20:35;;;;;;;15.80;9.60;;;;;;;1.98;70.06;102829.13;4943859;28;20037;-90
2023/03/01 09:23:01;;;;;;;15.32;8.82;;;;;;;2.02;68.45;102826.94;4964754;28;20041;-90
2023/03/01 09:25:26;;;;;;;18.15;9.02;;;;;;;2.06;69.43;102823.00;4962404;28;20027;-91
2023/03/01 09:27:52;;;;;;;16.20;9.27;;;;;;;2.15;68.56;102818.69;4945634;28;20019;-91
2023/03/01 09:30:17;;;;;;;16.23;8.55;;;;;;;2.22;67.31;102815.88;4948773;28;20427;-90
2023/03/01 09:32:44;;;;;;;15.93;8.88;;;;;;;2.29;67.42;102806.13;4967028;28;20034;-91
2023/03/01 09:35:10;;;;;;;17.05;9.32;;;;;;;2.38;67.30;102813.00;4967891;28;20030;-91
2023/03/01 09:37:37;;;;;;;16.48;9.32;;;;;;;2.50;67.93;102808.03;4967403;28;20249;-89
2023/03/01 09:40:15;;;;;;;15.00;8.73;;;;;;;2.61;68.23;102798.72;4968092;28;20031;-89
2023/03/01 09:42:59;;;;;;;15.05;8.85;;;;;;;2.72;67.07;102800.56;4949096;28;20172;-89
2023/03/01 09:45:32;;;;;;;17.00;8.93;;;;;;;2.75;66.15;102805.03;4947923;28;20130;-89
2023/03/01 09:48:00;;;;;;;17.88;9.00;;;;;;;2.73;66.10;102798.88;4968197;28;20100;-90
2023/03/01 09:50:27;;;;;;;17.88;8.98;;;;;;;2.75;66.63;102798.25;4980950;28;20046;-89
2023/03/01 09:53:32;;;;;;;14.82;8.70;;;;;;;2.80;64.63;102788.34;4965534;28;20492;-89
2023/03/01 09:56:18;;;;;;;12.77;8.07;;;;;;;2.87;65.27;102792.31;4955329;28;20044;-89
2023/03/01 09:59:06;;;;;;;14.93;8.32;;;;;;;2.92;64.81;102791.06;4964468;28;20453;-89
2023/03/01 10:01:58;;;;;;;15.48;8.18;;;;;;;3.01;65.40;102785.78;4965865;28;20093;-89
2023/03/01 10:04:43;;;;;;;14.23;8.48;;;;;;;3.12;64.79;102777.31;4967690;28;20038;-89
2023/03/01 10:07:39;;;;;;;15.95;8.90;;;;;;;3.22;63.96;102772.16;4979979;28;20055;-89
2023/03/01 10:10:07;;;;;;;13.93;8.23;;;;;;;3.24;62.29;102762.88;4949030;28;20095;-89
2023/03/01 10:12:40;;;;;;;15.18;8.05;;;;;;;3.26;60.45;102755.31;4962983;28;20031;-89
2023/03/01 10:15:10;;;;;;;13.85;8.02;;;;;;;3.23;61.82;102761.09;4947959;28;21034;-89
2023/03/01 10:17:54;;;;;;;15.13;8.38;;;;;;;3.33;62.37;102751.56;4962559;28;20031;-89
2023/03/01 10:20:26;;;;;;;16.42;8.30;;;;;;;3.46;62.63;102754.38;4962335;28;20045;-89
2023/03/01 10:22:52;;;;;;;13.88;8.18;;;;;;;3.52;62.00;102744.59;4947764;28;20035;-89
2023/03/01 10:25:41;;;;;;;16.45;8.10;;;;;;;3.54;61.68;102748.19;4961994;28;20090;-89
2023/03/01 10:28:19;;;;;;;15.57;8.43;;;;;;;3.62;63.38;102736.84;4977675;28;20043;-89
2023/03/01 10:30:46;;;;;;;15.02;8.52;;;;;;;3.75;62.62;102730.09;4948374;28;20038;-89
2023/03/01 10:33:19;;;;;;;14.25;8.65;;;;;;;3.92;61.50;102734.06;4946667;28;20085;-89
2023/03/01 10:35:45;;;;;;;15.57;8.43;;;;;;;4.08;60.25;102733.63;4962928;28;20039;-89
2023/03/01 10:38:13;;;;;;;15.70;8.57;;;;;;;4.18;60.15;102729.31;4946193;28;20114;-89
2023/03/01 10:40:57;;;;;;;18.15;8.52;;;;;;;4.30;61.10;102729.41;4962403;28;20524;-90
2023/03/01 10:43:25;;;;;;;17.40;8.88;;;;;;;4.49;59.49;102729.19;4947364;28;20548;-89
2023/03/01 10:45:51;;;;;;;16.45;8.98;;;;;;;4.64;58.45;102729.47;4962600;28;20069;-89
2023/03/01 10:48:27;;;;;;;14.75;8.48;;;;;;;4.80;58.78;102722.94;4947781;28;20509;-89
2023/03/01 10:50:58;;;;;;;14.60;8.18;;;;;;;4.97;58.13;102730.31;4947416;28;20033;-90
2023/03/01 10:53:32;;;;;;;14.27;8.98;;;;;;;5.12;57.78;102719.34;4946966;28;20563;-90
2023/03/01 10:56:15;;;;;;;16.08;8.50;;;;;;;5.30;57.16;102725.91;4962555;28;20508;-90
2023/03/01 10:58:58;;;;;;;16.35;8.10;;;;;;;5.39;56.39;102720.53;4978261;28;20027;-89
2023/03/01 11:01:29;;;;;;;14.93;8.60;;;;;;;5.48;55.28;102718.63;4947752;28;20094;-89
2023/03/01 11:04:06;;;;;;;15.73;8.93;;;;;;;5.66;55.41;102716.50;4945117;28;20031;-89
2023/03/01 11:06:36;;;;;;;13.25;8.43;;;;;;;5.79;55.15;102718.28;4945890;28;20035;-90
2023/03/01 11:09:23;;;;;;;13.68;8.30;;;;;;;5.88;56.14;102721.56;4962559;28;20090;-89
2023/03/01 11:11:56;;;;;;;16.70;9.43;;;;;;;5.96;53.93;102719.53;4977245;28;20038;-89
2023/03/01 11:14:26;;;;;;;14.52;8.57;;;;;;;5.98;53.87;102707.66;4978462;28;20460;-90
2023/03/01 11:17:23;;;;;;;16.10;9.00;;;;;;;5.95;55.94;102715.13;4961014;28;20259;-90
2023/03/01 11:20:18;;;;;;;14.80;9.40;;;;;;;5.83;54.83;102714.25;4946584;28;20051;-91
2023/03/01 11:22:53;;;;;;;16.40;8.98;;;;;;;5.88;55.11;102708.63;4966364;28;20127;-89
2023/03/01 11:25:24;;;;;;;15.25;9.50;;;;;;;6.03;53.19;102707.97;4966445;28;20038;-89
2023/03/01 11:27:51;;;;;;;16.33;9.52;;;;;;;6.07;54.04;102705.72;4964809;28;20031;-89